Time;durP1;ratioP1;P1;durP2;ratioP2;P2;SDS_P1;SDS_P2;PMS_P1;PMS_P2;Temp;Humidity;BMP_temperature;BMP_pressure;BME280_temperature;BME280_humidity;BME280_pressure;Samples;Min_cycle;Max_cycle;Signal;HPM_P1;HPM_P2
2022/10/27 00:01:08;;;;;;;5.93;1.47;;;;;;;15.66;81.17;100523.47;5031489;28;20291;-86
2022/10/27 00:03:34;;;;;;;4.45;1.08;;;;;;;15.64;81.17;100531.97;5026009;28;20735;-87
2022/10/27 00:06:04;;;;;;;3.83;1.30;;;;;;;15.68;81.21;100520.41;5030170;28;20029;-88
2022/10/27 00:08:29;;;;;;;5.43;1.70;;;;;;;15.76;80.80;100512.41;5025194;28;20279;-87
2022/10/27 00:10:58;;;;;;;5.50;1.67;;;;;;;15.76;80.81;100522.59;5021601;28;20025;-86
2022/10/27 00:13:24;;;;;;;11.80;1.77;;;;;;;15.83;80.35;100519.50;5021122;28;20341;-85
2022/10/27 00:16:17;;;;;;;8.07;2.10;;;;;;;15.86;80.20;100527.22;5021697;28;20112;-84
2022/10/27 00:18:43;;;;;;;5.03;2.05;;;;;;;15.73;80.70;100526.72;5016961;28;20042;-85
2022/10/27 00:21:18;;;;;;;11.48;2.03;;;;;;;15.70;80.99;100524.50;5021687;28;20064;-85
2022/10/27 00:23:48;;;;;;;6.45;1.67;;;;;;;15.61;81.38;100537.19;5022349;28;20121;-84
2022/10/27 00:26:16;;;;;;;4.43;2.35;;;;;;;15.64;81.18;100539.41;5019955;28;20033;-86
2022/10/27 00:28:42;;;;;;;4.35;1.30;;;;;;;15.69;81.02;100542.13;5020263;28;20122;-85
2022/10/27 00:31:11;;;;;;;5.80;1.58;;;;;;;15.71;80.83;100536.34;5019078;28;20486;-80
2022/10/27 00:33:37;;;;;;;4.47;1.25;;;;;;;15.68;80.99;100545.97;5023442;28;20141;-83
2022/10/27 00:36:33;;;;;;;5.25;2.55;;;;;;;15.70;81.02;100541.00;5030816;28;20538;-85
2022/10/27 00:38:58;;;;;;;7.20;2.28;;;;;;;15.63;81.17;100546.00;5012572;28;20245;-85
2022/10/27 00:41:35;;;;;;;4.82;1.80;;;;;;;15.60;81.35;100543.81;5030842;28;20025;-85
2022/10/27 00:44:22;;;;;;;6.05;2.13;;;;;;;15.60;81.33;100541.06;5030003;28;20033;-86
2022/10/27 00:46:47;;;;;;;7.15;1.40;;;;;;;15.58;81.33;100535.81;5030227;28;20033;-86
2022/10/27 00:49:17;;;;;;;6.65;2.03;;;;;;;15.52;81.49;100540.53;5030606;28;20040;-88
2022/10/27 00:51:49;;;;;;;13.30;3.00;;;;;;;15.59;81.41;100547.66;5030489;28;20474;-85
2022/10/27 00:54:16;;;;;;;6.63;2.17;;;;;;;15.45;81.93;100542.75;5029676;28;20033;-86
2022/10/27 00:56:43;;;;;;;4.78;1.45;;;;;;;15.55;81.52;100538.31;5030249;28;20025;-84
2022/10/27 00:59:09;;;;;;;6.05;2.20;;;;;;;15.62;81.12;100538.84;5030218;28;20574;-86
2022/10/27 01:01:35;;;;;;;11.27;2.55;;;;;;;15.49;81.73;100546.59;5031010;28;20029;-86
2022/10/27 01:04:01;;;;;;;31.27;3.72;;;;;;;15.52;81.77;100561.66;5029236;28;20072;-84
2022/10/27 01:06:27;;;;;;;5.63;2.20;;;;;;;15.42;82.20;100556.22;5029946;28;20499;-84
2022/10/27 01:08:53;;;;;;;15.70;2.75;;;;;;;15.52;81.75;100545.19;5030092;28;20041;-85
2022/10/27 01:11:18;;;;;;;7.57;2.00;;;;;;;15.44;81.94;100548.53;5030407;28;20037;-84
2022/10/27 01:13:43;;;;;;;6.78;1.90;;;;;;;15.43;81.99;100547.69;5029752;28;20042;-85
2022/10/27 01:16:38;;;;;;;8.03;2.17;;;;;;;15.41;81.73;100549.91;5030089;28;20029;-86
2022/10/27 01:19:15;;;;;;;3.78;2.00;;;;;;;15.44;82.07;100563.06;5029727;28;20254;-82
2022/10/27 01:21:54;;;;;;;5.47;2.05;;;;;;;15.40;81.75;100549.06;5030179;28;20030;-85
2022/10/27 01:24:37;;;;;;;4.43;1.80;;;;;;;15.43;81.71;100561.44;5029963;28;20029;-84
2022/10/27 01:27:07;;;;;;;4.00;1.98;;;;;;;15.40;81.80;100553.72;5030836;28;20033;-84
2022/10/27 01:29:44;;;;;;;5.05;2.25;;;;;;;15.37;82.22;100560.63;5032880;28;20041;-85
2022/10/27 01:32:15;;;;;;;5.50;1.77;;;;;;;15.28;82.45;100568.59;5029423;28;20394;-84
2022/10/27 01:35:05;;;;;;;6.10;2.58;;;;;;;15.05;83.29;100570.00;5029030;28;20029;-84
2022/10/27 01:37:39;;;;;;;10.82;2.15;;;;;;;15.07;83.34;100569.72;5029823;28;20033;-85
2022/10/27 01:40:26;;;;;;;7.65;2.35;;;;;;;15.01;83.34;100564.22;5029515;28;20029;-85
2022/10/27 01:43:00;;;;;;;9.68;1.90;;;;;;;14.78;83.56;100569.16;5029827;28;20041;-84
2022/10/27 01:45:30;;;;;;;4.38;1.40;;;;;;;14.81;83.51;100563.09;5030211;28;20036;-86
2022/10/27 01:47:56;;;;;;;7.55;1.77;;;;;;;14.77;83.51;100564.75;5029127;28;20037;-85
2022/10/27 01:50:31;;;;;;;6.00;1.70;;;;;;;14.92;83.97;100574.13;5033122;28;20026;-86
2022/10/27 01:52:56;;;;;;;11.80;2.60;;;;;;;15.06;83.30;100566.16;5040631;28;20109;-87
2022/10/27 01:55:34;;;;;;;10.55;1.60;;;;;;;15.09;83.19;100567.53;5053310;28;20458;-87
2022/10/27 01:58:18;;;;;;;3.65;1.20;;;;;;;15.24;82.68;100567.50;5034184;28;20039;-84
2022/10/27 02:01:11;;;;;;;4.78;1.48;;;;;;;15.16;82.68;100557.06;5031134;28;20025;-86
2022/10/27 02:04:01;;;;;;;4.78;1.35;;;;;;;15.00;83.21;100568.09;5026672;28;20064;-85
2022/10/27 02:06:44;;;;;;;5.93;1.90;;;;;;;14.86;83.31;100567.81;5033714;28;20056;-86
2022/10/27 02:09:16;;;;;;;6.20;1.30;;;;;;;15.07;83.26;100564.25;5033015;28;20041;-85
2022/10/27 02:11:46;;;;;;;4.20;1.60;;;;;;;15.07;83.05;100564.25;5033215;28;20246;-87
2022/10/27 02:14:12;;;;;;;3.97;1.20;;;;;;;14.92;82.92;100565.88;5033142;28;20037;-87
2022/10/27 02:16:57;;;;;;;6.45;1.63;;;;;;;14.74;83.51;100570.78;5033228;28;20037;-86
2022/10/27 02:19:36;;;;;;;6.88;2.10;;;;;;;14.84;83.62;100560.94;5033219;28;20364;-86
2022/10/27 02:22:03;;;;;;;6.32;1.42;;;;;;;14.90;83.42;100568.09;5032525;28;20025;-84
2022/10/27 02:24:30;;;;;;;10.43;2.10;;;;;;;14.99;83.34;100569.16;5033222;28;20057;-84
2022/10/27 02:27:25;;;;;;;14.60;1.60;;;;;;;14.92;83.70;100565.88;5033035;28;20067;-86
2022/10/27 02:29:54;;;;;;;7.18;1.80;;;;;;;15.01;83.10;100566.97;5032411;28;20104;-85
2022/10/27 02:32:22;;;;;;;4.72;1.10;;;;;;;14.96;83.21;100572.47;5032681;28;20033;-86
2022/10/27 02:34:49;;;;;;;2.92;1.10;;;;;;;15.10;82.69;100569.16;5033129;28;20037;-86
2022/10/27 02:37:41;;;;;;;4.63;1.50;;;;;;;14.92;83.36;100580.44;5032896;28;20064;-87
2022/10/27 02:40:07;;;;;;;4.65;1.50;;;;;;;15.01;83.23;100580.69;5028637;28;20509;-87
2022/10/27 02:42:33;;;;;;;3.55;1.60;;;;;;;15.04;82.95;100571.09;5032483;28;20043;-84
2022/10/27 02:44:58;;;;;;;5.15;1.75;;;;;;;15.05;82.98;100565.31;5033063;28;20497;-84
2022/10/27 02:47:23;;;;;;;15.23;2.43;;;;;;;15.00;83.07;100576.31;5032478;28;20374;-86
2022/10/27 02:49:49;;;;;;;6.25;1.50;;;;;;;14.87;83.58;100574.13;5032867;28;20247;-87
2022/10/27 02:52:14;;;;;;;4.88;2.42;;;;;;;14.82;83.83;100572.16;5032493;28;20056;-86
2022/10/27 02:54:41;;;;;;;4.40;1.60;;;;;;;14.82;83.45;100578.50;5032494;28;20061;-87
2022/10/27 02:57:06;;;;;;;3.85;1.35;;;;;;;14.66;83.57;100576.81;5032718;28;20057;-86
2022/10/27 02:59:31;;;;;;;3.95;1.42;;;;;;;14.77;83.84;100570.25;5032418;28;20068;-85
2022/10/27 03:01:56;;;;;;;5.15;1.85;;;;;;;14.98;83.01;100575.78;5031328;28;20044;-83
2022/10/27 03:04:22;;;;;;;5.82;1.80;;;;;;;15.01;82.61;100564.22;5011881;28;20546;-84
2022/10/27 03:06:47;;;;;;;5.88;1.58;;;;;;;15.09;82.47;100554.63;5012724;28;20531;-85
2022/10/27 03:09:12;;;;;;;4.37;2.03;;;;;;;15.13;82.36;100557.66;5012702;28;20069;-86
2022/10/27 03:11:38;;;;;;;4.35;1.38;;;;;;;15.16;82.54;100554.34;5012294;28;20278;-86
2022/10/27 03:14:03;;;;;;;6.45;1.58;;;;;;;15.20;81.82;100560.09;5031246;28;20034;-84
2022/10/27 03:16:28;;;;;;;4.43;0.93;;;;;;;15.10;82.68;100563.66;5032574;28;20173;-86
2022/10/27 03:18:54;;;;;;;11.40;1.67;;;;;;;15.22;82.06;100569.72;5032027;28;20025;-87
2022/10/27 03:21:19;;;;;;;5.83;1.90;;;;;;;15.18;81.98;100560.38;5032325;28;20612;-84
2022/10/27 03:23:44;;;;;;;6.72;1.65;;;;;;;15.05;82.34;100559.81;5031767;28;20801;-86
2022/10/27 03:26:10;;;;;;;5.57;1.70;;;;;;;15.17;82.09;100556.00;5032360;28;20030;-87
2022/10/27 03:28:35;;;;;;;7.85;1.38;;;;;;;15.00;82.47;100556.28;5032298;28;20259;-86
2022/10/27 03:31:02;;;;;;;10.00;2.22;;;;;;;15.12;82.19;100532.09;5031841;28;20040;-86
2022/10/27 03:33:27;;;;;;;9.52;2.35;;;;;;;15.16;81.82;100549.66;5031230;28;20041;-86
2022/10/27 03:35:52;;;;;;;4.30;1.27;;;;;;;15.15;81.99;100537.03;5031844;28;20029;-86
2022/10/27 03:38:18;;;;;;;5.03;1.55;;;;;;;15.07;81.61;100537.59;5032035;28;20273;-83
2022/10/27 03:40:43;;;;;;;13.20;1.60;;;;;;;15.20;81.51;100533.44;5032123;28;20036;-84
2022/10/27 03:43:10;;;;;;;5.00;1.83;;;;;;;15.07;81.93;100545.00;5031534;28;20038;-85
2022/10/27 03:45:35;;;;;;;5.93;1.70;;;;;;;15.15;81.22;100541.72;5031630;28;20279;-86
2022/10/27 03:48:03;;;;;;;12.73;2.67;;;;;;;15.11;81.73;100540.63;5031736;28;20049;-83
2022/10/27 03:50:29;;;;;;;6.80;1.33;;;;;;;15.09;81.66;100548.31;5031897;28;20349;-85
2022/10/27 03:52:54;;;;;;;6.60;2.38;;;;;;;15.21;81.24;100542.53;5030590;28;20055;-84
2022/10/27 03:55:20;;;;;;;7.28;1.60;;;;;;;15.13;81.42;100544.72;5031698;28;20040;-86
2022/10/27 03:57:45;;;;;;;4.20;1.20;;;;;;;15.20;80.80;100538.13;5031469;28;20063;-86
2022/10/27 04:00:11;;;;;;;3.40;1.30;;;;;;;15.10;81.09;100541.69;5031439;28;20056;-87
2022/10/27 04:02:36;;;;;;;5.05;1.23;;;;;;;14.88;81.76;100545.56;5030297;28;20287;-84
2022/10/27 04:05:01;;;;;;;5.70;1.40;;;;;;;15.03;81.57;100534.56;5030528;28;20029;-87
2022/10/27 04:07:27;;;;;;;4.97;2.00;;;;;;;15.02;81.51;100538.44;5031172;28;20623;-86
2022/10/27 04:09:52;;;;;;;5.87;1.63;;;;;;;14.97;81.78;100535.66;5031021;28;20567;-86
2022/10/27 04:12:17;;;;;;;6.10;1.20;;;;;;;15.05;81.50;100542.56;5030986;28;20328;-86
2022/10/27 04:14:42;;;;;;;4.43;1.53;;;;;;;15.01;81.98;100539.50;5031325;28;20752;-83
2022/10/27 04:17:07;;;;;;;24.37;2.77;;;;;;;15.09;81.32;100537.31;5030133;28;20277;-84
2022/10/27 04:19:33;;;;;;;4.37;1.53;;;;;;;15.13;80.84;100535.69;5031405;28;20308;-85
2022/10/27 04:21:58;;;;;;;8.73;2.03;;;;;;;15.13;80.93;100532.94;5035982;28;20278;-85
2022/10/27 04:24:23;;;;;;;6.23;1.03;;;;;;;15.16;80.59;100527.69;5033466;28;20095;-84
2022/10/27 04:26:48;;;;;;;3.30;1.37;;;;;;;15.08;80.58;100535.66;5031068;28;20280;-85
2022/10/27 04:29:14;;;;;;;6.37;1.30;;;;;;;15.13;80.76;100538.41;5030767;28;20663;-86
2022/10/27 04:31:39;;;;;;;7.40;1.30;;;;;;;15.12;80.50;100534.00;5030620;28;20266;-82
2022/10/27 04:34:04;;;;;;;5.20;1.57;;;;;;;15.16;80.27;100532.34;5030185;28;20273;-86
2022/10/27 04:36:30;;;;;;;6.72;1.52;;;;;;;14.99;81.19;100538.97;5030349;28;20711;-85
2022/10/27 04:38:55;;;;;;;2.40;0.70;;;;;;;15.02;81.37;100543.09;5030608;28;20025;-87
2022/10/27 04:41:20;;;;;;;4.60;1.27;;;;;;;15.02;81.18;100535.69;5030169;28;20021;-84
2022/10/27 04:43:49;;;;;;;7.40;1.00;;;;;;;15.15;80.28;100533.47;5029928;28;20271;-85
2022/10/27 04:46:15;;;;;;;2.78;0.90;;;;;;;15.13;80.35;100522.75;5030474;28;20037;-87
2022/10/27 04:48:41;;;;;;;6.85;1.23;;;;;;;15.22;80.15;100517.53;5030560;28;20497;-86
2022/10/27 04:51:06;;;;;;;3.93;1.03;;;;;;;15.31;79.53;100517.78;5030339;28;20044;-87
2022/10/27 04:53:34;;;;;;;4.33;1.53;;;;;;;15.23;80.07;100519.19;5029600;28;20279;-85
2022/10/27 04:55:59;;;;;;;3.35;0.95;;;;;;;15.24;79.98;100523.56;5030065;28;20655;-86
2022/10/27 04:58:25;;;;;;;3.42;1.20;;;;;;;15.25;79.77;100516.97;5030185;28;20029;-87
2022/10/27 05:00:50;;;;;;;5.97;1.13;;;;;;;15.29;79.58;100520.78;5012889;28;20029;-83
2022/10/27 05:03:15;;;;;;;1.73;0.68;;;;;;;15.28;79.65;100512.84;5029568;28;20547;-86
2022/10/27 05:05:41;;;;;;;2.70;1.23;;;;;;;15.25;79.78;100518.91;5030195;28;20112;-85
2022/10/27 05:08:08;;;;;;;2.23;1.03;;;;;;;15.22;80.06;100516.69;5029815;28;20049;-85
2022/10/27 05:10:34;;;;;;;7.15;1.38;;;;;;;15.26;79.50;100515.88;5030389;28;20339;-87
2022/10/27 05:12:59;;;;;;;4.22;1.10;;;;;;;15.10;79.98;100514.25;5038742;28;20573;-84
2022/10/27 05:15:25;;;;;;;14.10;1.55;;;;;;;15.08;80.35;100517.28;5050349;28;20108;-85
2022/10/27 05:17:50;;;;;;;7.05;1.23;;;;;;;15.13;80.27;100517.25;5049882;28;20040;-86
2022/10/27 05:20:16;;;;;;;5.55;0.98;;;;;;;15.09;80.04;100515.34;5035605;28;20068;-86
2022/10/27 05:22:42;;;;;;;3.40;1.52;;;;;;;15.11;80.33;100519.44;5028970;28;20036;-86
2022/10/27 05:25:09;;;;;;;4.05;1.20;;;;;;;15.13;80.19;100516.44;5033068;28;20029;-84
2022/10/27 05:27:35;;;;;;;2.30;0.80;;;;;;;15.14;80.05;100523.56;5034134;28;20108;-86
2022/10/27 05:30:00;;;;;;;7.65;1.50;;;;;;;15.07;80.02;100518.38;5034429;28;20025;-86
2022/10/27 05:32:26;;;;;;;2.10;1.13;;;;;;;15.07;80.28;100512.06;5033563;28;20160;-86
2022/10/27 05:34:51;;;;;;;4.03;1.52;;;;;;;15.12;80.04;100514.78;5034265;28;20771;-87
2022/10/27 05:37:16;;;;;;;6.47;2.30;;;;;;;15.03;80.40;100518.09;5034141;28;20390;-86
2022/10/27 05:39:42;;;;;;;4.72;1.55;;;;;;;15.14;79.55;100518.09;5034572;28;20297;-87
2022/10/27 05:42:07;;;;;;;7.43;1.43;;;;;;;15.15;79.92;100517.00;5033754;28;20033;-86
2022/10/27 05:44:32;;;;;;;7.38;1.13;;;;;;;15.13;79.75;100513.72;5033740;28;20271;-84
2022/10/27 05:46:58;;;;;;;5.15;1.17;;;;;;;15.11;79.79;100515.91;5034383;28;20180;-87
2022/10/27 05:49:23;;;;;;;3.40;0.90;;;;;;;15.15;79.43;100519.75;5033878;28;20452;-84
2022/10/27 05:51:49;;;;;;;3.27;1.03;;;;;;;14.93;80.06;100518.09;5033984;28;20547;-84
2022/10/27 05:54:15;;;;;;;5.68;1.58;;;;;;;15.07;80.03;100517.56;5033087;28;20262;-87
2022/10/27 05:56:40;;;;;;;5.70;1.58;;;;;;;15.15;79.66;100526.03;5033622;28;20080;-86
2022/10/27 05:59:05;;;;;;;6.83;1.37;;;;;;;15.09;79.19;100515.34;5033537;28;20041;-85
2022/10/27 06:01:30;;;;;;;5.65;1.35;;;;;;;15.04;79.80;100518.94;5033968;28;20471;-86
2022/10/27 06:03:56;;;;;;;12.25;1.00;;;;;;;15.06;79.58;100522.22;5032523;28;20048;-87
2022/10/27 06:06:21;;;;;;;3.78;1.13;;;;;;;15.03;79.70;100515.34;5033121;28;20426;-87
2022/10/27 06:08:46;;;;;;;5.93;1.10;;;;;;;14.96;79.86;100520.31;5033799;28;20549;-87
2022/10/27 06:11:11;;;;;;;4.57;1.03;;;;;;;14.99;79.65;100522.50;5033064;28;20251;-86
2022/10/27 06:13:37;;;;;;;6.13;1.83;;;;;;;15.01;79.47;100534.03;5033108;28;20267;-84
2022/10/27 06:16:02;;;;;;;3.20;0.90;;;;;;;15.02;79.47;100527.44;5032237;28;20751;-83
2022/10/27 06:18:28;;;;;;;23.65;1.60;;;;;;;15.08;79.40;100520.03;5033106;28;20463;-86
2022/10/27 06:20:53;;;;;;;5.53;1.35;;;;;;;15.07;79.41;100523.88;5033909;28;20171;-84
2022/10/27 06:23:18;;;;;;;5.53;1.33;;;;;;;15.08;78.65;100528.25;5032662;28;20037;-83
2022/10/27 06:25:43;;;;;;;8.40;1.52;;;;;;;15.02;79.06;100532.94;5032986;28;20033;-87
2022/10/27 06:28:09;;;;;;;3.17;1.20;;;;;;;15.06;79.18;100527.72;5033247;28;20120;-86
2022/10/27 06:30:34;;;;;;;7.18;1.33;;;;;;;15.00;79.07;100529.66;5032357;28;20030;-86
2022/10/27 06:32:59;;;;;;;2.33;0.85;;;;;;;15.09;78.68;100524.44;5031926;28;20071;-84
2022/10/27 06:35:25;;;;;;;4.27;1.40;;;;;;;15.08;78.91;100524.69;5028012;28;20441;-85
2022/10/27 06:37:50;;;;;;;5.43;1.20;;;;;;;15.07;78.58;100523.03;5027056;28;20267;-83
2022/10/27 06:40:17;;;;;;;2.33;1.00;;;;;;;15.05;78.45;100537.88;5027716;28;20437;-84
2022/10/27 06:42:45;;;;;;;5.60;1.50;;;;;;;15.13;78.38;100532.94;5023696;28;20327;-85
2022/10/27 06:45:11;;;;;;;13.88;2.17;;;;;;;15.14;78.42;100545.53;5023002;28;20096;-87
2022/10/27 06:47:36;;;;;;;1.98;0.65;;;;;;;15.08;78.62;100541.16;5031281;28;20112;-88
2022/10/27 06:50:02;;;;;;;3.47;1.03;;;;;;;15.21;78.14;100534.28;5024888;28;20041;-84
2022/10/27 06:52:27;;;;;;;7.88;1.40;;;;;;;15.25;77.71;100544.44;5019387;28;20616;-84
2022/10/27 06:54:52;;;;;;;4.80;2.33;;;;;;;15.19;77.65;100545.56;5031962;28;20132;-85
2022/10/27 06:57:18;;;;;;;5.40;1.30;;;;;;;15.19;77.74;100545.56;5030611;28;20499;-85
2022/10/27 06:59:44;;;;;;;7.85;2.33;;;;;;;15.19;78.00;100553.78;5033404;28;20258;-84
2022/10/27 07:02:11;;;;;;;3.37;1.33;;;;;;;15.20;77.93;100557.34;5032130;28;20037;-82
2022/10/27 07:04:36;;;;;;;2.33;1.00;;;;;;;15.15;77.72;100555.44;5032806;28;20755;-87
2022/10/27 07:07:02;;;;;;;3.30;1.00;;;;;;;15.15;78.10;100564.47;5032097;28;20041;-82
2022/10/27 07:09:27;;;;;;;3.20;0.90;;;;;;;15.26;77.75;100556.22;5032402;28;20041;-87
2022/10/27 07:11:53;;;;;;;8.40;1.63;;;;;;;15.32;77.70;100551.56;5032735;28;20140;-86
2022/10/27 07:14:19;;;;;;;3.47;0.75;;;;;;;15.34;77.38;100552.09;5031814;28;20132;-87
2022/10/27 07:16:44;;;;;;;4.85;1.40;;;;;;;15.36;77.26;100555.38;5032360;28;20053;-87
2022/10/27 07:19:09;;;;;;;6.60;2.13;;;;;;;15.25;77.55;100552.69;5034652;28;20037;-86
2022/10/27 07:21:34;;;;;;;4.00;1.30;;;;;;;15.35;77.32;100554.59;5032465;28;20328;-89
2022/10/27 07:24:00;;;;;;;9.80;1.80;;;;;;;15.30;77.60;100554.59;5031792;28;20270;-84
2022/10/27 07:26:25;;;;;;;4.75;0.80;;;;;;;15.29;77.61;100551.00;5029930;28;20798;-84
2022/10/27 07:28:50;;;;;;;6.27;1.37;;;;;;;15.38;77.48;100555.94;5031293;28;20040;-84
2022/10/27 07:31:15;;;;;;;7.47;1.33;;;;;;;15.35;77.51;100548.25;5032072;28;20794;-83
2022/10/27 07:33:41;;;;;;;3.67;1.27;;;;;;;15.51;77.13;100554.53;5031032;28;20350;-83
2022/10/27 07:36:06;;;;;;;5.82;1.92;;;;;;;15.52;77.19;100551.50;5032189;28;20258;-84
2022/10/27 07:38:35;;;;;;;3.38;0.98;;;;;;;15.56;77.00;100548.22;5028683;28;20111;-84
2022/10/27 07:41:00;;;;;;;5.78;1.30;;;;;;;15.47;77.59;100546.03;5022548;28;20062;-85
2022/10/27 07:43:25;;;;;;;3.08;1.20;;;;;;;15.63;77.23;100535.00;5028455;28;20040;-83
2022/10/27 07:45:50;;;;;;;3.67;0.80;;;;;;;15.70;77.28;100542.94;5031827;28;20029;-81
2022/10/27 07:48:16;;;;;;;4.68;1.10;;;;;;;15.69;76.65;100536.63;5031120;28;20346;-83
2022/10/27 07:50:43;;;;;;;4.10;1.02;;;;;;;15.72;76.47;100538.00;5031705;28;20474;-83
2022/10/27 07:53:09;;;;;;;4.38;1.00;;;;;;;15.75;76.88;100530.00;5031050;28;20029;-82
2022/10/27 07:55:35;;;;;;;3.38;0.80;;;;;;;15.89;76.42;100526.63;5031521;28;20144;-83
2022/10/27 07:58:09;;;;;;;2.72;0.68;;;;;;;15.87;76.52;100529.69;5031041;28;20482;-79
2022/10/27 08:00:36;;;;;;;;;;;;;;;15.94;76.23;100523.88;5032672;28;20033;-86
2022/10/27 08:03:02;;;;;;;5.43;0.70;;;;;;;15.97;75.84;100519.72;5027298;28;19920;-82
2022/10/27 08:05:29;;;;;;;10.48;1.40;;;;;;;16.01;76.20;100509.00;5029775;28;20024;-81
2022/10/27 08:08:02;;;;;;;7.03;0.85;;;;;;;16.09;75.76;100508.41;5028825;28;20057;-84
2022/10/27 08:10:29;;;;;;;4.88;1.23;;;;;;;16.05;75.54;100496.38;5031300;28;20041;-81
2022/10/27 08:12:54;;;;;;;5.07;1.15;;;;;;;16.13;75.90;100497.69;5030747;28;20034;-84
2022/10/27 08:15:19;;;;;;;2.15;0.90;;;;;;;16.16;75.74;100491.59;5031004;28;20060;-82
2022/10/27 08:17:50;;;;;;;2.85;1.05;;;;;;;16.27;74.91;100504.16;5030458;28;20056;-83
2022/10/27 08:20:15;;;;;;;5.50;1.45;;;;;;;16.36;74.90;100511.81;5031334;28;20044;-82
2022/10/27 08:22:40;;;;;;;12.50;2.43;;;;;;;16.42;74.35;100507.94;5030178;28;20034;-80
2022/10/27 08:25:06;;;;;;;4.60;0.90;;;;;;;16.45;74.48;100527.44;5030978;28;20405;-82
2022/10/27 08:27:32;;;;;;;2.80;0.55;;;;;;;16.55;74.46;100518.31;5047168;28;20297;-84
2022/10/27 08:29:57;;;;;;;2.17;0.52;;;;;;;16.57;74.40;100518.84;5050878;28;20028;-84
2022/10/27 08:32:22;;;;;;;1.60;0.47;;;;;;;16.61;74.04;100535.59;5046256;28;20033;-85
2022/10/27 08:34:47;;;;;;;1.95;0.50;;;;;;;16.65;73.72;100525.66;5030434;28;20266;-84
2022/10/27 08:37:13;;;;;;;2.43;0.63;;;;;;;16.80;72.77;100521.16;5030678;28;20037;-83
2022/10/27 08:39:38;;;;;;;3.40;0.90;;;;;;;16.82;73.60;100518.91;5030608;28;20636;-83
2022/10/27 08:42:15;;;;;;;2.83;0.73;;;;;;;16.80;73.27;100521.94;5030162;28;20338;-84
2022/10/27 08:44:49;;;;;;;3.30;1.02;;;;;;;16.87;73.94;100529.06;5030154;28;20032;-85
2022/10/27 08:47:20;;;;;;;9.13;0.82;;;;;;;16.91;73.08;100525.44;5030445;28;20479;-83
2022/10/27 08:49:50;;;;;;;6.75;0.73;;;;;;;16.95;72.90;100516.59;5030524;28;20118;-86
2022/10/27 08:52:31;;;;;;;2.92;1.13;;;;;;;16.98;72.69;100522.34;5029923;28;20038;-85
2022/10/27 08:55:27;;;;;;;4.65;0.98;;;;;;;17.04;72.02;100517.63;5030809;28;20106;-87
2022/10/27 08:58:17;;;;;;;4.18;0.77;;;;;;;17.09;72.67;100522.22;5001452;28;20072;-85
2022/10/27 09:00:53;;;;;;;1.40;0.52;;;;;;;17.14;72.33;100523.06;5030135;28;20450;-85
2022/10/27 09:03:52;;;;;;;1.85;0.60;;;;;;;17.22;71.93;100526.28;5029149;28;20037;-83
2022/10/27 09:06:23;;;;;;;3.28;0.57;;;;;;;17.23;71.84;100523.22;5024800;28;20045;-86
2022/10/27 09:08:49;;;;;;;3.53;0.88;;;;;;;17.29;71.36;100520.44;5025989;28;20446;-84
2022/10/27 09:11:42;;;;;;;5.83;1.70;;;;;;;17.35;71.19;100524.78;5029918;28;20034;-85
2022/10/27 09:14:24;;;;;;;2.20;0.80;;;;;;;17.43;71.00;100521.34;5027918;28;20033;-83
2022/10/27 09:16:55;;;;;;;3.70;0.90;;;;;;;17.52;71.92;100524.31;5028794;28;20029;-82
2022/10/27 09:19:26;;;;;;;1.88;0.57;;;;;;;17.66;70.12;100515.31;5029591;28;20032;-82
2022/10/27 09:21:52;;;;;;;3.30;0.63;;;;;;;17.66;69.96;100512.56;5029379;28;20021;-82
2022/10/27 09:24:21;;;;;;;3.05;0.90;;;;;;;17.68;70.70;100516.66;5029129;28;20037;-82
2022/10/27 09:26:47;;;;;;;8.65;1.23;;;;;;;17.80;70.43;100507.97;5030016;28;20025;-86
2022/10/27 09:29:20;;;;;;;7.32;1.52;;;;;;;17.85;69.79;100513.44;5029557;28;20102;-81
2022/10/27 09:31:56;;;;;;;11.95;1.15;;;;;;;17.97;68.27;100513.00;5027530;28;20032;-84
2022/10/27 09:34:29;;;;;;;2.58;0.80;;;;;;;17.99;68.30;100514.63;5028395;28;20037;-82
2022/10/27 09:36:55;;;;;;;;;;;;;;;18.11;68.20;100506.72;5030092;28;20024;-84
2022/10/27 09:39:21;;;;;;;7.47;1.17;;;;;;;18.08;67.65;100510.91;5029735;28;20276;-85
2022/10/27 09:41:47;;;;;;;1.10;0.40;;;;;;;18.07;67.05;100506.50;5023806;28;20041;-82
2022/10/27 09:44:18;;;;;;;3.50;1.10;;;;;;;18.17;67.14;100510.25;5012385;28;20045;-81
2022/10/27 09:46:49;;;;;;;3.10;0.85;;;;;;;18.22;67.16;100499.16;5010182;28;20069;-82
2022/10/27 09:49:15;;;;;;;13.95;1.13;;;;;;;18.26;66.89;100496.63;5023038;28;20029;-82
2022/10/27 09:51:47;;;;;;;0.88;0.40;;;;;;;18.24;66.75;100496.94;5029622;28;20116;-82
2022/10/27 09:54:33;;;;;;;2.10;0.73;;;;;;;18.25;67.24;100506.81;5029216;28;20038;-82
2022/10/27 09:57:08;;;;;;;4.85;0.88;;;;;;;18.25;66.83;100500.47;5011896;28;20025;-82
2022/10/27 09:59:35;;;;;;;1.40;0.47;;;;;;;18.29;66.84;100493.25;5029541;28;20021;-80
2022/10/27 10:02:04;;;;;;;4.25;1.02;;;;;;;18.27;66.43;100499.06;5029213;28;20430;-83
2022/10/27 10:04:33;;;;;;;5.20;0.77;;;;;;;18.38;66.75;100494.22;5029321;28;20029;-82
2022/10/27 10:07:02;;;;;;;2.05;0.50;;;;;;;18.48;66.89;100484.13;5029267;28;20053;-82
2022/10/27 10:09:30;;;;;;;2.20;0.93;;;;;;;18.49;66.87;100492.09;5030792;28;20537;-81
2022/10/27 10:12:20;;;;;;;4.22;1.10;;;;;;;18.63;67.29;100483.06;5034857;28;20017;-82
2022/10/27 10:14:46;;;;;;;3.45;1.45;;;;;;;18.74;66.72;100486.47;5013592;28;20088;-81
2022/10/27 10:17:21;;;;;;;3.42;1.02;;;;;;;18.67;66.33;100473.84;5013265;28;20463;-82
2022/10/27 10:19:46;;;;;;;7.90;0.70;;;;;;;18.75;67.06;100466.03;5022079;28;20410;-81
2022/10/27 10:22:33;;;;;;;14.57;5.85;;;;;;;18.76;67.05;100465.72;5032001;28;20037;-82
2022/10/27 10:25:15;;;;;;;5.45;1.45;;;;;;;18.90;67.14;100473.19;5033606;28;20029;-81
2022/10/27 10:27:48;;;;;;;3.80;0.93;;;;;;;18.89;66.86;100468.81;5032832;28;20034;-82
2022/10/27 10:30:18;;;;;;;4.47;0.85;;;;;;;18.95;66.11;100456.53;5032857;28;20033;-81
2022/10/27 10:32:49;;;;;;;5.45;1.02;;;;;;;18.96;66.85;100449.88;5033236;28;20033;-81
2022/10/27 10:35:41;;;;;;;6.15;1.02;;;;;;;19.04;66.20;100453.06;5032388;28;20071;-82
2022/10/27 10:38:21;;;;;;;4.45;1.65;;;;;;;19.13;65.86;100445.69;5032448;28;20140;-82
2022/10/27 10:41:11;;;;;;;6.18;1.40;;;;;;;19.18;66.54;100436.53;5032885;28;20121;-82
2022/10/27 10:43:38;;;;;;;4.45;0.98;;;;;;;19.25;66.18;100431.41;5032686;28;20037;-82
2022/10/27 10:46:05;;;;;;;2.15;0.60;;;;;;;19.21;65.63;100420.16;5032573;28;20064;-81
2022/10/27 10:48:48;;;;;;;3.15;1.25;;;;;;;19.07;66.19;100419.28;5031842;28;20033;-81
2022/10/27 10:51:24;;;;;;;5.32;0.85;;;;;;;19.16;66.05;100434.06;5012655;28;20494;-81
2022/10/27 10:53:52;;;;;;;4.20;0.70;;;;;;;19.24;65.92;100433.34;5027151;28;20045;-83
2022/10/27 10:56:28;;;;;;;4.35;0.90;;;;;;;19.23;65.98;100430.88;5031951;28;20033;-82
2022/10/27 10:59:05;;;;;;;3.25;1.90;;;;;;;19.27;66.08;100433.84;5032451;28;20315;-82
2022/10/27 11:01:40;;;;;;;10.48;1.52;;;;;;;19.39;65.87;100428.63;5032018;28;20029;-82
2022/10/27 11:04:05;;;;;;;3.60;1.40;;;;;;;19.40;66.23;100423.91;5031140;28;20181;-83
2022/10/27 11:06:31;;;;;;;5.93;0.88;;;;;;;19.41;65.71;100412.53;5031562;28;20052;-82
2022/10/27 11:09:02;;;;;;;3.80;1.20;;;;;;;19.39;65.52;100409.28;5032207;28;20028;-82
2022/10/27 11:11:38;;;;;;;8.85;2.08;;;;;;;19.56;65.66;100408.66;5031743;28;20151;-83
2022/10/27 11:14:12;;;;;;;11.90;2.33;;;;;;;19.61;64.84;100388.34;5031555;28;20045;-82
2022/10/27 11:16:44;;;;;;;8.25;1.35;;;;;;;19.55;65.26;100395.94;5032002;28;20029;-82
2022/10/27 11:19:16;;;;;;;4.25;1.23;;;;;;;19.61;64.99;100391.09;5031787;28;20040;-83
2022/10/27 11:22:00;;;;;;;4.75;1.33;;;;;;;19.64;64.82;100398.78;5030900;28;20030;-82
2022/10/27 11:24:30;;;;;;;7.75;2.13;;;;;;;19.77;65.05;100394.34;5011546;28;20472;-82
2022/10/27 11:27:02;;;;;;;4.32;1.80;;;;;;;19.79;64.98;100394.03;5011425;28;20061;-82
2022/10/27 11:29:37;;;;;;;3.42;1.13;;;;;;;19.82;65.45;100388.69;5011057;28;20037;-81
2022/10/27 11:32:24;;;;;;;5.25;1.50;;;;;;;19.74;64.60;100388.63;5011391;28;20057;-81
2022/10/27 11:35:15;;;;;;;14.23;1.77;;;;;;;19.78;64.89;100390.44;5030859;28;20397;-80